sensor_id;sensor_type;location;lat;lon;timestamp;pressure;altitude;pressure_sealevel;temperature;humidity
58090;BME280;45149;50.976;6.120;2022-08-16T00:00:16;99496.16;;;19.56;100.00
58090;BME280;45149;50.976;6.120;2022-08-16T00:02:43;99496.69;;;19.58;100.00
58090;BME280;45149;50.976;6.120;2022-08-16T00:05:10;99500.38;;;19.48;100.00
58090;BME280;45149;50.976;6.120;2022-08-16T00:07:36;99503.56;;;19.50;100.00
58090;BME280;45149;50.976;6.120;2022-08-16T00:10:05;99511.28;;;19.43;100.00
58090;BME280;45149;50.976;6.120;2022-08-16T00:12:31;99507.03;;;19.37;100.00
58090;BME280;45149;50.976;6.120;2022-08-16T00:14:58;99500.53;;;19.38;100.00
58090;BME280;45149;50.976;6.120;2022-08-16T00:17:26;99509.25;;;19.34;100.00
58090;BME280;45149;50.976;6.120;2022-08-16T00:19:53;99504.22;;;19.28;100.00
58090;BME280;45149;50.976;6.120;2022-08-16T00:22:20;99508.84;;;19.27;100.00
58090;BME280;45149;50.976;6.120;2022-08-16T00:24:45;99502.63;;;19.27;100.00
58090;BME280;45149;50.976;6.120;2022-08-16T00:27:11;99509.66;;;19.28;100.00
58090;BME280;45149;50.976;6.120;2022-08-16T00:29:36;99508.34;;;19.25;100.00
58090;BME280;45149;50.976;6.120;2022-08-16T00:32:04;99513.56;;;19.22;100.00
58090;BME280;45149;50.976;6.120;2022-08-16T00:34:30;99522.84;;;19.15;100.00
58090;BME280;45149;50.976;6.120;2022-08-16T00:36:55;99524.22;;;19.13;100.00
58090;BME280;45149;50.976;6.120;2022-08-16T00:39:21;99522.50;;;19.03;100.00
58090;BME280;45149;50.976;6.120;2022-08-16T00:41:48;99520.59;;;19.04;100.00
58090;BME280;45149;50.976;6.120;2022-08-16T00:44:15;99532.28;;;18.99;100.00
58090;BME280;45149;50.976;6.120;2022-08-16T00:46:58;99531.56;;;18.93;100.00
58090;BME280;45149;50.976;6.120;2022-08-16T00:49:26;99537.09;;;19.02;100.00
58090;BME280;45149;50.976;6.120;2022-08-16T00:51:52;99529.00;;;19.02;100.00
58090;BME280;45149;50.976;6.120;2022-08-16T00:54:18;99529.59;;;18.99;100.00
58090;BME280;45149;50.976;6.120;2022-08-16T00:56:46;99537.22;;;18.97;100.00
58090;BME280;45149;50.976;6.120;2022-08-16T00:59:14;99542.53;;;19.02;100.00
58090;BME280;45149;50.976;6.120;2022-08-16T01:01:41;99527.78;;;18.94;100.00
58090;BME280;45149;50.976;6.120;2022-08-16T01:04:08;99525.06;;;18.94;100.00
58090;BME280;45149;50.976;6.120;2022-08-16T01:06:34;99526.09;;;18.98;100.00
58090;BME280;45149;50.976;6.120;2022-08-16T01:09:02;99532.88;;;18.96;100.00
58090;BME280;45149;50.976;6.120;2022-08-16T01:11:32;99526.81;;;19.04;100.00
58090;BME280;45149;50.976;6.120;2022-08-16T01:14:13;99522.78;;;19.01;100.00
58090;BME280;45149;50.976;6.120;2022-08-16T01:16:41;99524.81;;;19.10;100.00
58090;BME280;45149;50.976;6.120;2022-08-16T01:19:19;99522.72;;;19.07;100.00
58090;BME280;45149;50.976;6.120;2022-08-16T01:24:47;99532.53;;;19.03;100.00
58090;BME280;45149;50.976;6.120;2022-08-16T01:27:18;99525.63;;;19.10;100.00
58090;BME280;45149;50.976;6.120;2022-08-16T01:29:50;99535.38;;;18.92;100.00
58090;BME280;45149;50.976;6.120;2022-08-16T01:32:18;99535.28;;;18.97;100.00
58090;BME280;45149;50.976;6.120;2022-08-16T01:34:44;99538.53;;;18.99;100.00
58090;BME280;45149;50.976;6.120;2022-08-16T01:37:11;99540.13;;;19.00;100.00
58090;BME280;45149;50.976;6.120;2022-08-16T01:39:37;99535.59;;;18.96;100.00
58090;BME280;45149;50.976;6.120;2022-08-16T01:42:05;99531.63;;;18.88;100.00
58090;BME280;45149;50.976;6.120;2022-08-16T01:44:33;99538.91;;;18.93;100.00
58090;BME280;45149;50.976;6.120;2022-08-16T01:46:59;99530.19;;;18.96;100.00
58090;BME280;45149;50.976;6.120;2022-08-16T01:49:30;99533.00;;;18.85;100.00
58090;BME280;45149;50.976;6.120;2022-08-16T01:52:04;99527.09;;;18.83;100.00
58090;BME280;45149;50.976;6.120;2022-08-16T01:54:30;99529.00;;;18.83;100.00
58090;BME280;45149;50.976;6.120;2022-08-16T01:56:57;99537.91;;;18.83;100.00
58090;BME280;45149;50.976;6.120;2022-08-16T01:59:22;99527.69;;;18.80;100.00
58090;BME280;45149;50.976;6.120;2022-08-16T02:01:50;99531.91;;;18.87;100.00
58090;BME280;45149;50.976;6.120;2022-08-16T02:04:21;99531.13;;;18.86;100.00
58090;BME280;45149;50.976;6.120;2022-08-16T02:06:47;99530.44;;;18.75;100.00
58090;BME280;45149;50.976;6.120;2022-08-16T02:09:13;99538.19;;;18.82;100.00
58090;BME280;45149;50.976;6.120;2022-08-16T02:11:41;99526.00;;;18.65;100.00
58090;BME280;45149;50.976;6.120;2022-08-16T02:14:08;99526.94;;;18.56;100.00
58090;BME280;45149;50.976;6.120;2022-08-16T02:16:33;99527.25;;;18.54;100.00
58090;BME280;45149;50.976;6.120;2022-08-16T02:18:59;99523.22;;;18.52;100.00
58090;BME280;45149;50.976;6.120;2022-08-16T02:21:25;99521.31;;;18.52;100.00
58090;BME280;45149;50.976;6.120;2022-08-16T02:23:50;99524.53;;;18.54;100.00
58090;BME280;45149;50.976;6.120;2022-08-16T02:26:16;99526.22;;;18.50;100.00
58090;BME280;45149;50.976;6.120;2022-08-16T02:28:42;99524.81;;;18.53;100.00
58090;BME280;45149;50.976;6.120;2022-08-16T02:31:10;99519.91;;;18.55;100.00
58090;BME280;45149;50.976;6.120;2022-08-16T02:33:37;99517.81;;;18.52;100.00
58090;BME280;45149;50.976;6.120;2022-08-16T02:36:03;99518.44;;;18.43;100.00
58090;BME280;45149;50.976;6.120;2022-08-16T02:38:29;99518.94;;;18.45;100.00
58090;BME280;45149;50.976;6.120;2022-08-16T02:40:56;99514.00;;;18.33;100.00
58090;BME280;45149;50.976;6.120;2022-08-16T02:43:26;99515.66;;;18.29;100.00
58090;BME280;45149;50.976;6.120;2022-08-16T02:45:51;99513.00;;;18.24;100.00
58090;BME280;45149;50.976;6.120;2022-08-16T02:48:17;99511.63;;;18.27;100.00
58090;BME280;45149;50.976;6.120;2022-08-16T02:50:42;99520.38;;;18.19;100.00
58090;BME280;45149;50.976;6.120;2022-08-16T02:53:08;99516.81;;;18.23;100.00
58090;BME280;45149;50.976;6.120;2022-08-16T02:55:33;99513.06;;;18.19;100.00
58090;BME280;45149;50.976;6.120;2022-08-16T02:57:58;99515.78;;;18.19;100.00
58090;BME280;45149;50.976;6.120;2022-08-16T03:00:24;99519.06;;;18.16;100.00
58090;BME280;45149;50.976;6.120;2022-08-16T03:02:53;99521.19;;;18.19;100.00
58090;BME280;45149;50.976;6.120;2022-08-16T03:05:19;99518.78;;;18.17;100.00
58090;BME280;45149;50.976;6.120;2022-08-16T03:07:44;99509.38;;;18.10;100.00
58090;BME280;45149;50.976;6.120;2022-08-16T03:10:10;99508.88;;;18.08;100.00
58090;BME280;45149;50.976;6.120;2022-08-16T03:12:37;99512.88;;;18.15;100.00
58090;BME280;45149;50.976;6.120;2022-08-16T03:15:05;99509.34;;;18.15;100.00
58090;BME280;45149;50.976;6.120;2022-08-16T03:17:30;99515.91;;;18.09;100.00
58090;BME280;45149;50.976;6.120;2022-08-16T03:19:57;99518.91;;;18.07;100.00
58090;BME280;45149;50.976;6.120;2022-08-16T03:22:22;99516.13;;;18.12;100.00
58090;BME280;45149;50.976;6.120;2022-08-16T03:24:48;99519.31;;;18.20;100.00
58090;BME280;45149;50.976;6.120;2022-08-16T03:27:13;99514.63;;;18.25;100.00
58090;BME280;45149;50.976;6.120;2022-08-16T03:29:39;99515.72;;;18.24;100.00
58090;BME280;45149;50.976;6.120;2022-08-16T03:32:04;99512.72;;;18.26;100.00
58090;BME280;45149;50.976;6.120;2022-08-16T03:34:30;99516.97;;;18.32;100.00
58090;BME280;45149;50.976;6.120;2022-08-16T03:36:57;99516.69;;;18.33;100.00
58090;BME280;45149;50.976;6.120;2022-08-16T03:39:26;99525.44;;;18.25;100.00
58090;BME280;45149;50.976;6.120;2022-08-16T03:41:52;99525.78;;;18.19;100.00
58090;BME280;45149;50.976;6.120;2022-08-16T03:44:18;99528.53;;;18.13;100.00
58090;BME280;45149;50.976;6.120;2022-08-16T03:46:43;99535.56;;;18.14;100.00
58090;BME280;45149;50.976;6.120;2022-08-16T03:49:09;99536.06;;;18.16;100.00
58090;BME280;45149;50.976;6.120;2022-08-16T03:51:37;99530.66;;;18.16;100.00
58090;BME280;45149;50.976;6.120;2022-08-16T03:54:02;99530.22;;;18.09;100.00
58090;BME280;45149;50.976;6.120;2022-08-16T03:56:28;99528.44;;;18.24;100.00
58090;BME280;45149;50.976;6.120;2022-08-16T03:58:53;99529.28;;;18.19;100.00
58090;BME280;45149;50.976;6.120;2022-08-16T04:01:21;99541.25;;;18.13;100.00
58090;BME280;45149;50.976;6.120;2022-08-16T04:03:47;99545.34;;;18.10;100.00
58090;BME280;45149;50.976;6.120;2022-08-16T04:06:12;99551.13;;;17.98;100.00
58090;BME280;45149;50.976;6.120;2022-08-16T04:08:37;99546.56;;;17.99;100.00
58090;BME280;45149;50.976;6.120;2022-08-16T04:11:03;99541.69;;;17.96;100.00
58090;BME280;45149;50.976;6.120;2022-08-16T04:13:28;99554.75;;;17.83;100.00
58090;BME280;45149;50.976;6.120;2022-08-16T04:15:55;99547.16;;;17.91;100.00
58090;BME280;45149;50.976;6.120;2022-08-16T04:18:25;99557.41;;;17.94;100.00
58090;BME280;45149;50.976;6.120;2022-08-16T04:20:51;99560.41;;;17.92;100.00
58090;BME280;45149;50.976;6.120;2022-08-16T04:23:17;99562.56;;;17.85;100.00
58090;BME280;45149;50.976;6.120;2022-08-16T04:25:42;99559.41;;;17.78;100.00
58090;BME280;45149;50.976;6.120;2022-08-16T04:28:08;99558.16;;;17.70;100.00
58090;BME280;45149;50.976;6.120;2022-08-16T04:30:34;99559.28;;;17.64;100.00
58090;BME280;45149;50.976;6.120;2022-08-16T04:32:59;99555.03;;;17.58;100.00
58090;BME280;45149;50.976;6.120;2022-08-16T04:35:25;99558.88;;;17.46;100.00
58090;BME280;45149;50.976;6.120;2022-08-16T04:37:51;99559.13;;;17.50;100.00
58090;BME280;45149;50.976;6.120;2022-08-16T04:40:19;99557.81;;;17.47;100.00
58090;BME280;45149;50.976;6.120;2022-08-16T04:42:45;99562.16;;;17.43;100.00
58090;BME280;45149;50.976;6.120;2022-08-16T04:45:12;99562.69;;;17.45;100.00
58090;BME280;45149;50.976;6.120;2022-08-16T04:47:38;99557.59;;;17.44;100.00
58090;BME280;45149;50.976;6.120;2022-08-16T04:50:17;99555.44;;;17.41;100.00
58090;BME280;45149;50.976;6.120;2022-08-16T04:52:46;99566.47;;;17.44;100.00
58090;BME280;45149;50.976;6.120;2022-08-16T04:55:16;99569.75;;;17.41;100.00
58090;BME280;45149;50.976;6.120;2022-08-16T04:57:43;99566.91;;;17.57;100.00
58090;BME280;45149;50.976;6.120;2022-08-16T05:00:11;99576.31;;;17.64;100.00
58090;BME280;45149;50.976;6.120;2022-08-16T05:02:39;99573.59;;;17.64;100.00
58090;BME280;45149;50.976;6.120;2022-08-16T05:05:05;99565.50;;;17.64;100.00
58090;BME280;45149;50.976;6.120;2022-08-16T05:07:30;99575.19;;;17.65;100.00
58090;BME280;45149;50.976;6.120;2022-08-16T05:09:56;99581.03;;;17.78;100.00
58090;BME280;45149;50.976;6.120;2022-08-16T05:12:21;99580.38;;;17.91;100.00
58090;BME280;45149;50.976;6.120;2022-08-16T05:14:46;99594.63;;;17.97;100.00
58090;BME280;45149;50.976;6.120;2022-08-16T05:17:12;99588.91;;;18.04;100.00
58090;BME280;45149;50.976;6.120;2022-08-16T05:19:37;99587.00;;;18.04;100.00
58090;BME280;45149;50.976;6.120;2022-08-16T05:22:03;99580.25;;;18.02;100.00
58090;BME280;45149;50.976;6.120;2022-08-16T05:24:29;99592.34;;;18.09;100.00
58090;BME280;45149;50.976;6.120;2022-08-16T05:26:54;99590.34;;;18.20;100.00
58090;BME280;45149;50.976;6.120;2022-08-16T05:29:19;99596.03;;;18.19;100.00
58090;BME280;45149;50.976;6.120;2022-08-16T05:31:45;99598.91;;;18.27;100.00
58090;BME280;45149;50.976;6.120;2022-08-16T05:34:10;99601.56;;;18.32;100.00
58090;BME280;45149;50.976;6.120;2022-08-16T05:36:36;99604.44;;;18.41;100.00
58090;BME280;45149;50.976;6.120;2022-08-16T05:39:02;99607.06;;;18.46;100.00
58090;BME280;45149;50.976;6.120;2022-08-16T05:41:28;99605.13;;;18.52;100.00
58090;BME280;45149;50.976;6.120;2022-08-16T05:43:53;99602.84;;;18.59;100.00
58090;BME280;45149;50.976;6.120;2022-08-16T05:46:19;99601.91;;;18.69;100.00
58090;BME280;45149;50.976;6.120;2022-08-16T05:48:45;99608.00;;;18.80;100.00
58090;BME280;45149;50.976;6.120;2022-08-16T05:51:10;99611.41;;;18.91;100.00
58090;BME280;45149;50.976;6.120;2022-08-16T05:53:36;99608.88;;;18.99;100.00
58090;BME280;45149;50.976;6.120;2022-08-16T05:56:01;99618.75;;;19.09;100.00
58090;BME280;45149;50.976;6.120;2022-08-16T05:58:27;99619.19;;;19.16;100.00
58090;BME280;45149;50.976;6.120;2022-08-16T06:00:52;99616.09;;;19.23;100.00
58090;BME280;45149;50.976;6.120;2022-08-16T06:03:18;99619.47;;;19.34;100.00
58090;BME280;45149;50.976;6.120;2022-08-16T06:05:43;99625.78;;;19.43;100.00
58090;BME280;45149;50.976;6.120;2022-08-16T06:08:12;99624.75;;;19.58;100.00
58090;BME280;45149;50.976;6.120;2022-08-16T06:10:37;99607.34;;;19.64;100.00
58090;BME280;45149;50.976;6.120;2022-08-16T06:13:03;99611.13;;;19.82;100.00
58090;BME280;45149;50.976;6.120;2022-08-16T06:15:28;99610.22;;;19.87;100.00
58090;BME280;45149;50.976;6.120;2022-08-16T06:17:54;99613.25;;;19.99;100.00
58090;BME280;45149;50.976;6.120;2022-08-16T06:20:23;99611.56;;;20.17;100.00
58090;BME280;45149;50.976;6.120;2022-08-16T06:22:49;99617.97;;;20.35;100.00
58090;BME280;45149;50.976;6.120;2022-08-16T06:25:15;99620.50;;;20.46;100.00
58090;BME280;45149;50.976;6.120;2022-08-16T06:27:41;99626.09;;;20.63;100.00
58090;BME280;45149;50.976;6.120;2022-08-16T06:30:08;99624.53;;;20.76;100.00
58090;BME280;45149;50.976;6.120;2022-08-16T06:32:33;99628.63;;;20.60;100.00
58090;BME280;45149;50.976;6.120;2022-08-16T06:34:59;99637.97;;;20.95;100.00
58090;BME280;45149;50.976;6.120;2022-08-16T06:37:24;99629.91;;;21.04;100.00
58090;BME280;45149;50.976;6.120;2022-08-16T06:39:50;99642.44;;;21.14;100.00
58090;BME280;45149;50.976;6.120;2022-08-16T06:42:16;99643.63;;;21.21;100.00
58090;BME280;45149;50.976;6.120;2022-08-16T06:44:41;99644.38;;;21.36;100.00
58090;BME280;45149;50.976;6.120;2022-08-16T06:47:07;99647.72;;;21.33;100.00
58090;BME280;45149;50.976;6.120;2022-08-16T06:49:32;99649.19;;;21.39;100.00
58090;BME280;45149;50.976;6.120;2022-08-16T06:51:57;99646.03;;;21.46;100.00
58090;BME280;45149;50.976;6.120;2022-08-16T06:54:23;99647.81;;;21.64;100.00
58090;BME280;45149;50.976;6.120;2022-08-16T06:56:48;99654.66;;;21.62;100.00
58090;BME280;45149;50.976;6.120;2022-08-16T06:59:14;99657.44;;;21.70;100.00
58090;BME280;45149;50.976;6.120;2022-08-16T07:01:39;99659.16;;;21.89;100.00
58090;BME280;45149;50.976;6.120;2022-08-16T07:04:05;99656.28;;;21.94;100.00
58090;BME280;45149;50.976;6.120;2022-08-16T07:06:31;99658.47;;;22.15;100.00
58090;BME280;45149;50.976;6.120;2022-08-16T07:08:57;99667.59;;;22.10;100.00
58090;BME280;45149;50.976;6.120;2022-08-16T07:11:23;99673.03;;;22.42;100.00
58090;BME280;45149;50.976;6.120;2022-08-16T07:13:49;99674.03;;;22.54;100.00
58090;BME280;45149;50.976;6.120;2022-08-16T07:16:15;99676.81;;;22.63;100.00
58090;BME280;45149;50.976;6.120;2022-08-16T07:18:44;99675.53;;;22.61;100.00
58090;BME280;45149;50.976;6.120;2022-08-16T07:21:11;99684.91;;;23.03;100.00
58090;BME280;45149;50.976;6.120;2022-08-16T07:23:37;99685.38;;;23.05;100.00
58090;BME280;45149;50.976;6.120;2022-08-16T07:26:05;99691.31;;;23.07;100.00
58090;BME280;45149;50.976;6.120;2022-08-16T07:28:31;99685.53;;;22.92;100.00
58090;BME280;45149;50.976;6.120;2022-08-16T07:30:57;99690.88;;;23.32;100.00
58090;BME280;45149;50.976;6.120;2022-08-16T07:33:24;99686.88;;;23.20;100.00
58090;BME280;45149;50.976;6.120;2022-08-16T07:35:49;99693.28;;;23.51;100.00
58090;BME280;45149;50.976;6.120;2022-08-16T07:38:15;99688.50;;;23.65;100.00
58090;BME280;45149;50.976;6.120;2022-08-16T07:40:40;99694.22;;;23.81;100.00
58090;BME280;45149;50.976;6.120;2022-08-16T07:43:06;99694.78;;;24.31;100.00
58090;BME280;45149;50.976;6.120;2022-08-16T07:45:32;99693.25;;;24.03;100.00
58090;BME280;45149;50.976;6.120;2022-08-16T07:47:57;99698.56;;;24.47;100.00
58090;BME280;45149;50.976;6.120;2022-08-16T07:50:23;99701.03;;;24.79;100.00
58090;BME280;45149;50.976;6.120;2022-08-16T07:52:48;99693.69;;;25.00;100.00
58090;BME280;45149;50.976;6.120;2022-08-16T07:55:14;99696.84;;;24.81;100.00
58090;BME280;45149;50.976;6.120;2022-08-16T07:57:41;99696.59;;;24.65;100.00
58090;BME280;45149;50.976;6.120;2022-08-16T08:00:07;99695.38;;;24.84;100.00
58090;BME280;45149;50.976;6.120;2022-08-16T08:02:33;99695.34;;;25.14;100.00
58090;BME280;45149;50.976;6.120;2022-08-16T08:04:59;99696.34;;;25.39;100.00
58090;BME280;45149;50.976;6.120;2022-08-16T08:07:24;99689.50;;;25.24;100.00
58090;BME280;45149;50.976;6.120;2022-08-16T08:09:51;99695.19;;;25.61;100.00
58090;BME280;45149;50.976;6.120;2022-08-16T08:12:16;99701.63;;;26.11;100.00
58090;BME280;45149;50.976;6.120;2022-08-16T08:14:44;99699.88;;;26.65;100.00
58090;BME280;45149;50.976;6.120;2022-08-16T08:17:09;99695.66;;;26.67;100.00
58090;BME280;45149;50.976;6.120;2022-08-16T08:19:35;99709.72;;;26.78;100.00
58090;BME280;45149;50.976;6.120;2022-08-16T08:22:02;99703.69;;;27.25;100.00
58090;BME280;45149;50.976;6.120;2022-08-16T08:24:28;99713.22;;;27.85;100.00
58090;BME280;45149;50.976;6.120;2022-08-16T08:26:56;99713.22;;;28.61;100.00
58090;BME280;45149;50.976;6.120;2022-08-16T08:29:23;99708.81;;;28.72;100.00
58090;BME280;45149;50.976;6.120;2022-08-16T08:31:49;99719.16;;;30.09;99.92
58090;BME280;45149;50.976;6.120;2022-08-16T08:34:16;99726.56;;;30.51;92.09
58090;BME280;45149;50.976;6.120;2022-08-16T08:36:42;99730.22;;;30.36;90.22
58090;BME280;45149;50.976;6.120;2022-08-16T08:39:08;99725.78;;;30.51;89.74
58090;BME280;45149;50.976;6.120;2022-08-16T08:41:33;99737.19;;;30.76;85.77
58090;BME280;45149;50.976;6.120;2022-08-16T08:43:58;99743.16;;;31.05;81.79
58090;BME280;45149;50.976;6.120;2022-08-16T08:46:24;99743.59;;;30.57;82.86
58090;BME280;45149;50.976;6.120;2022-08-16T08:48:52;99737.22;;;29.67;89.17
58090;BME280;45149;50.976;6.120;2022-08-16T08:51:18;99753.56;;;31.15;80.55
58090;BME280;45149;50.976;6.120;2022-08-16T08:53:44;99744.97;;;30.24;83.01
58090;BME280;45149;50.976;6.120;2022-08-16T08:56:11;99760.84;;;30.11;83.23
58090;BME280;45149;50.976;6.120;2022-08-16T08:58:37;99753.03;;;30.56;81.90
58090;BME280;45149;50.976;6.120;2022-08-16T09:01:04;99748.06;;;30.92;76.68
58090;BME280;45149;50.976;6.120;2022-08-16T09:03:31;99746.44;;;31.14;76.55
58090;BME280;45149;50.976;6.120;2022-08-16T09:05:57;99758.25;;;31.41;74.94
58090;BME280;45149;50.976;6.120;2022-08-16T09:08:22;99755.47;;;30.88;76.17
58090;BME280;45149;50.976;6.120;2022-08-16T09:10:48;99750.19;;;31.29;73.79
58090;BME280;45149;50.976;6.120;2022-08-16T09:13:14;99748.38;;;31.40;71.70
58090;BME280;45149;50.976;6.120;2022-08-16T09:15:39;99749.19;;;31.41;72.40
58090;BME280;45149;50.976;6.120;2022-08-16T09:18:05;99743.91;;;31.28;71.54
58090;BME280;45149;50.976;6.120;2022-08-16T09:20:31;99739.84;;;31.22;68.25
58090;BME280;45149;50.976;6.120;2022-08-16T09:22:57;99742.91;;;32.12;65.52
58090;BME280;45149;50.976;6.120;2022-08-16T09:25:24;99742.00;;;32.00;60.64
58090;BME280;45149;50.976;6.120;2022-08-16T09:27:49;99739.63;;;32.03;60.80
58090;BME280;45149;50.976;6.120;2022-08-16T09:30:15;99740.66;;;31.83;60.37
58090;BME280;45149;50.976;6.120;2022-08-16T09:32:42;99743.53;;;31.98;61.20
58090;BME280;45149;50.976;6.120;2022-08-16T09:35:08;99748.84;;;32.55;55.28
58090;BME280;45149;50.976;6.120;2022-08-16T09:37:33;99744.59;;;32.68;56.30
58090;BME280;45149;50.976;6.120;2022-08-16T09:40:00;99743.72;;;33.09;54.63
58090;BME280;45149;50.976;6.120;2022-08-16T09:42:28;99744.88;;;33.82;51.78
58090;BME280;45149;50.976;6.120;2022-08-16T09:44:53;99738.94;;;33.87;50.27
58090;BME280;45149;50.976;6.120;2022-08-16T09:47:19;99739.41;;;34.18;49.24
58090;BME280;45149;50.976;6.120;2022-08-16T09:49:44;99741.34;;;34.03;47.93
58090;BME280;45149;50.976;6.120;2022-08-16T09:52:10;99742.22;;;33.23;49.25
58090;BME280;45149;50.976;6.120;2022-08-16T09:54:36;99745.25;;;33.77;48.77
58090;BME280;45149;50.976;6.120;2022-08-16T09:57:03;99737.44;;;34.36;44.59
58090;BME280;45149;50.976;6.120;2022-08-16T09:59:28;99736.19;;;34.05;45.54
58090;BME280;45149;50.976;6.120;2022-08-16T10:01:55;99736.84;;;33.51;47.11
58090;BME280;45149;50.976;6.120;2022-08-16T10:04:21;99741.78;;;34.52;46.52
58090;BME280;45149;50.976;6.120;2022-08-16T10:06:46;99740.53;;;35.18;45.00
58090;BME280;45149;50.976;6.120;2022-08-16T10:09:13;99734.22;;;35.03;43.13
58090;BME280;45149;50.976;6.120;2022-08-16T10:11:39;99737.88;;;34.49;44.47
58090;BME280;45149;50.976;6.120;2022-08-16T10:14:24;99734.81;;;33.41;44.46
58090;BME280;45149;50.976;6.120;2022-08-16T10:16:56;99749.16;;;33.76;44.24
58090;BME280;45149;50.976;6.120;2022-08-16T10:19:22;99738.25;;;34.73;42.06
58090;BME280;45149;50.976;6.120;2022-08-16T10:21:48;99744.78;;;33.60;43.64
58090;BME280;45149;50.976;6.120;2022-08-16T10:24:14;99734.63;;;34.04;42.69
58090;BME280;45149;50.976;6.120;2022-08-16T10:26:40;99744.53;;;34.12;42.31
58090;BME280;45149;50.976;6.120;2022-08-16T10:29:06;99741.94;;;33.46;42.57
58090;BME280;45149;50.976;6.120;2022-08-16T10:31:32;99729.69;;;31.91;44.99
58090;BME280;45149;50.976;6.120;2022-08-16T10:33:57;99733.75;;;30.56;49.91
58090;BME280;45149;50.976;6.120;2022-08-16T10:36:26;99734.84;;;32.33;46.71
58090;BME280;45149;50.976;6.120;2022-08-16T10:38:51;99731.75;;;32.01;46.70
58090;BME280;45149;50.976;6.120;2022-08-16T10:41:17;99740.53;;;33.04;45.67
58090;BME280;45149;50.976;6.120;2022-08-16T10:43:42;99743.41;;;34.49;41.78
58090;BME280;45149;50.976;6.120;2022-08-16T10:46:12;99744.59;;;34.84;41.44
58090;BME280;45149;50.976;6.120;2022-08-16T10:48:41;99753.59;;;35.28;40.45
58090;BME280;45149;50.976;6.120;2022-08-16T10:51:06;99751.06;;;35.74;39.08
58090;BME280;45149;50.976;6.120;2022-08-16T10:53:33;99739.81;;;34.27;40.42
58090;BME280;45149;50.976;6.120;2022-08-16T10:56:06;99744.94;;;35.01;39.78
58090;BME280;45149;50.976;6.120;2022-08-16T10:58:33;99738.78;;;31.95;44.41
58090;BME280;45149;50.976;6.120;2022-08-16T11:00:59;99741.47;;;31.23;47.27
58090;BME280;45149;50.976;6.120;2022-08-16T11:03:25;99744.25;;;31.27;47.22
58090;BME280;45149;50.976;6.120;2022-08-16T11:05:52;99742.16;;;32.15;45.82
58090;BME280;45149;50.976;6.120;2022-08-16T11:08:18;99750.28;;;30.56;48.41
58090;BME280;45149;50.976;6.120;2022-08-16T11:10:44;99735.25;;;30.30;50.12
58090;BME280;45149;50.976;6.120;2022-08-16T11:13:14;99748.34;;;30.83;49.68
58090;BME280;45149;50.976;6.120;2022-08-16T11:15:39;99746.41;;;30.60;48.60
58090;BME280;45149;50.976;6.120;2022-08-16T11:18:09;99749.22;;;29.98;50.56
58090;BME280;45149;50.976;6.120;2022-08-16T11:20:36;99745.84;;;29.85;50.39
58090;BME280;45149;50.976;6.120;2022-08-16T11:23:01;99746.72;;;31.05;48.39
58090;BME280;45149;50.976;6.120;2022-08-16T11:25:29;99753.63;;;30.69;48.61
58090;BME280;45149;50.976;6.120;2022-08-16T11:27:55;99749.91;;;32.02;46.37
58090;BME280;45149;50.976;6.120;2022-08-16T11:30:22;99758.59;;;31.09;46.60
58090;BME280;45149;50.976;6.120;2022-08-16T11:32:48;99756.63;;;31.37;46.30
58090;BME280;45149;50.976;6.120;2022-08-16T11:35:15;99757.09;;;31.15;46.58
58090;BME280;45149;50.976;6.120;2022-08-16T11:37:48;99755.28;;;31.27;47.79
58090;BME280;45149;50.976;6.120;2022-08-16T11:40:14;99743.84;;;30.48;48.75
58090;BME280;45149;50.976;6.120;2022-08-16T11:42:41;99757.19;;;30.69;48.34
58090;BME280;45149;50.976;6.120;2022-08-16T11:45:06;99762.97;;;32.46;45.25
58090;BME280;45149;50.976;6.120;2022-08-16T11:47:32;99755.72;;;31.02;47.86
58090;BME280;45149;50.976;6.120;2022-08-16T11:49:57;99760.97;;;30.38;48.69
58090;BME280;45149;50.976;6.120;2022-08-16T11:52:22;99750.44;;;29.42;50.60
58090;BME280;45149;50.976;6.120;2022-08-16T11:54:49;99758.63;;;29.38;51.59
58090;BME280;45149;50.976;6.120;2022-08-16T11:57:14;99761.75;;;29.76;50.04
58090;BME280;45149;50.976;6.120;2022-08-16T11:59:40;99761.59;;;30.08;49.97
58090;BME280;45149;50.976;6.120;2022-08-16T12:02:07;99764.81;;;30.56;50.09
58090;BME280;45149;50.976;6.120;2022-08-16T12:04:33;99771.56;;;31.36;48.29
58090;BME280;45149;50.976;6.120;2022-08-16T12:07:00;99769.03;;;31.54;46.20
58090;BME280;45149;50.976;6.120;2022-08-16T12:09:27;99779.69;;;32.61;45.36
58090;BME280;45149;50.976;6.120;2022-08-16T12:11:52;99781.06;;;32.81;44.17
58090;BME280;45149;50.976;6.120;2022-08-16T12:14:18;99773.72;;;32.59;43.96
58090;BME280;45149;50.976;6.120;2022-08-16T12:16:43;99771.81;;;32.22;43.53
58090;BME280;45149;50.976;6.120;2022-08-16T12:19:09;99772.81;;;30.88;46.52
58090;BME280;45149;50.976;6.120;2022-08-16T12:21:35;99779.81;;;32.75;44.84
58090;BME280;45149;50.976;6.120;2022-08-16T12:24:01;99772.38;;;32.38;44.90
58090;BME280;45149;50.976;6.120;2022-08-16T12:26:26;99770.78;;;33.41;42.12
58090;BME280;45149;50.976;6.120;2022-08-16T12:28:52;99770.38;;;32.35;44.88
58090;BME280;45149;50.976;6.120;2022-08-16T12:31:19;99774.72;;;33.37;42.20
58090;BME280;45149;50.976;6.120;2022-08-16T12:33:46;99770.66;;;34.11;41.05
58090;BME280;45149;50.976;6.120;2022-08-16T12:36:12;99763.25;;;31.62;45.11
58090;BME280;45149;50.976;6.120;2022-08-16T12:38:39;99765.06;;;33.86;42.55
58090;BME280;45149;50.976;6.120;2022-08-16T12:41:04;99752.06;;;34.23;41.92
58090;BME280;45149;50.976;6.120;2022-08-16T12:43:29;99754.03;;;35.16;39.13
58090;BME280;45149;50.976;6.120;2022-08-16T12:45:55;99754.44;;;35.00;39.38
58090;BME280;45149;50.976;6.120;2022-08-16T12:48:28;99761.88;;;35.50;37.35
58090;BME280;45149;50.976;6.120;2022-08-16T12:51:14;99759.66;;;36.01;36.67